Sunday, August 31, 2014, 2:31 AM EDT

KFDK, Frederick, Frederick Municipal Airport

Location: Frederick, MD, United States Lat: 39.417
Local Time: 2:31 AM EDT ( 6:31 GMT) Lon: -77.374
Time Zone: US/Eastern Elev: 301 ft

Show me the last for .
Show Decoded

2014-08-31 02:20 METAR KFDK 310620Z AUTO 00000KT 10SM OVC013 A3014 RMK AO2 LTG DSNT W =
2014-08-31 02:00 METAR KFDK 310600Z AUTO 00000KT 10SM BKN015 OVC025 A3014 RMK AO2 =
2014-08-31 01:40 METAR KFDK 310540Z AUTO 00000KT 7SM SCT015 BKN025 OVC034 22/22 A3015 RMK AO2 =
2014-08-31 01:20 METAR KFDK 310520Z AUTO 00000KT 10SM BKN027 21/21 A3015 RMK AO2 =
2014-08-31 01:00 METAR KFDK 310500Z AUTO 00000KT 10SM CLR 21/21 A3015 RMK AO2 LTG DSNT W =
2014-08-31 00:40 METAR KFDK 310440Z AUTO 00000KT 10SM SCT028 22/22 A3015 RMK AO2 LTG DSNT W =
2014-08-31 00:20 METAR KFDK 310420Z AUTO 00000KT 10SM SCT031 SCT050 SCT110 22/22 A3015 RMK AO2 =
2014-08-31 00:00 METAR KFDK 310400Z AUTO 00000KT 10SM BKN031 OVC035 23/23 A3016 RMK AO2 =
2014-08-30 23:40 METAR KFDK 310340Z AUTO 00000KT 10SM SCT032 BKN038 OVC100 23/23 A3016 RMK AO2 =
2014-08-30 23:20 METAR KFDK 310320Z AUTO 23003KT 10SM OVC110 23/22 A3015 RMK AO2 =
2014-08-30 23:00 METAR KFDK 310300Z AUTO 00000KT 10SM OVC110 23/22 A3015 RMK AO2 LTG DSNT W =
2014-08-30 22:40 METAR KFDK 310240Z AUTO 00000KT 10SM SCT110 23/22 A3015 RMK AO2 =
2014-08-30 22:20 METAR KFDK 310220Z AUTO 00000KT 10SM SCT037 SCT110 23/22 A3015 =
2014-08-30 22:00 METAR KFDK 310200Z AUTO 00000KT 10SM BKN037 24/22 A3015 RMK AO2 =
2014-08-30 21:40 METAR KFDK 310140Z AUTO 00000KT 10SM BKN037 24/22 A3015 RMK AO2 =
2014-08-30 21:20 METAR KFDK 310120Z AUTO 13003KT 10SM SCT030 OVC037 25/23 A3015 RMK AO2 =
2014-08-30 21:00 METAR KFDK 310100Z AUTO 00000KT 10SM BKN029 OVC039 25/23 A3016 RMK AO2 =
2014-08-30 20:40 METAR KFDK 310040Z AUTO 11003KT 10SM BKN029 OVC039 25/23 A3015 RMK AO2 =
2014-08-30 19:50 METAR KFDK 302350Z 00000KT 10SM OVC041 26/23 A3013 =
2014-08-30 18:45 METAR KFDK 302245Z 19005KT 10SM OVC037 27/22 A3014 =
2014-08-30 17:50 METAR KFDK 302150Z 18004KT 10SM OVC033 27/23 A3014 =
2014-08-30 16:50 METAR KFDK 302050Z 18006KT 10SM BKN031 28/22 A3016 =
2014-08-30 15:50 METAR KFDK 301950Z 17005KT 10SM OVC029 28/22 A3017 =
2014-08-30 13:45 METAR KFDK 301745Z 20007KT 10SM OVC025 27/21 A3021 =
2014-08-30 12:45 METAR KFDK 301645Z 16008KT 10SM BKN023 OVC060 26/21 A3023 =
2014-08-30 11:47 METAR KFDK 301547Z 19006KT 10SM OVC023 25/20 A3024 =
2014-08-30 10:45 METAR KFDK 301445Z 18003KT OVC023 23/20 A3025 =
2014-08-30 09:45 METAR KFDK 301345Z VARB03KT 10SM OVC025 22/20 A3025 =
2014-08-30 08:50 METAR KFDK 301250Z 00000KT 10SM OVC029 20/19 A3026 =
2014-08-30 08:00 METAR KFDK 301200Z 000000KT 10SM OVC027 19/19 A3026 =
2014-08-30 06:45 METAR KFDK 301045Z 00000KT 10SM OVC027 18/18 A3025 =
2014-08-30 06:30 METAR KFDK 301030Z AUTO 04003KT 7SM OVC027 17/17 A3025 RMK AO2 =
2014-08-30 06:20 METAR KFDK 301020Z AUTO 00000KT 4SM BR OVC029 18/18 A3025 =
2014-08-30 06:00 METAR KFDK 301000Z AUTO 00000KT 7SM BKN029 OVC048 18/18 A3025 RMK AO2 =
2014-08-30 05:40 METAR KFDK 300940Z AUTO 00000KT 10SM SCT029 OVC048 18/18 A3025 RMK AO2 =
2014-08-30 05:20 METAR KFDK 300920Z AUTO 00000KT 10SM OVC048 18/17 A3024 RMK AO2 =
2014-08-30 05:00 METAR KFDK 300900Z AUTO 00000KT 10SM SCT031 OVC048 18/18 A3023 RMK AO2 =
2014-08-30 04:40 METAR KFDK 300840Z AUTO 00000KT 10SM OVC048 17/17 A3023 RMK AO2 =
2014-08-30 04:20 METAR KFDK 300820Z AUTO 00000KT 10SM OVC050 17/17 A3024 RMK AO2 =
2014-08-30 04:00 METAR KFDK 300800Z AUTO 00000KT 10SM SCT050 OVC055 17/17 A3024 RMK AO2 =
2014-08-30 03:40 METAR KFDK 300740Z AUTO 00000KT 10SM SCT048 OVC060 17/17 A3024 RMK AO2 =
2014-08-30 03:20 METAR KFDK 300720Z AUTO 00000KT 10SM SCT050 OVC060 17/17 A3024 RMK AO2 =
2014-08-30 03:00 METAR KFDK 300700Z AUTO 00000KT 10SM BKN050 OVC060 17/17 A3025 RMK AO2 =
2014-08-30 02:40 METAR KFDK 300640Z AUTO 00000KT 10SM OVC050 17/17 A3025 RMK AO2 =

Support USWX by starting your Amazon purchase here.